ENKB/KSU METAR and TAF weather

Enter ICAO airport designator
Station Type Date Time Source
ENKB METAR 2019/12/12 11:50 UTC NOAA

ENKB 121150Z VRB07KT 9999 FEW030TCU SCT100 07/M05 Q0980 RMK WIND 745FT 19017KT


Station Type Date Time Source
ENKB Decoded METAR 2019/12/12 11:50 UTC NOAA

Kristiansund / Kvernberget, Norway (ENKB) 63-07N 007-50E 62M
Dec 12, 2019 - 06:50 AM EST / 2019.12.12 1150 UTC
Wind: Variable at 8 MPH (7 KT):0
Visibility: greater than 7 mile(s):0
Sky conditions: partly cloudy
Weather: Towering cumulus clouds observed
Temperature: 44 F (7 C)
Dew Point: 23 F (-5 C)
Relative Humidity: 42%
Pressure (altimeter): 28.94 in. Hg (0980 hPa)
ob: ENKB 121150Z VRB07KT 9999 FEW030TCU SCT100 07/M05 Q0980 RMK WIND 745FT 19017KT
cycle: 12

Station Type Date Time Source
ENKB TAF 2010/02/05 07:50 UTC NOAA

METAR ENKB 050750Z 15011KT 110V200 9999 SCT055 BKN070 03/M05 Q1007

Example: see airport list